createdAt,value
2023-05-01T00:02:01.705Z,100
2023-05-01T00:16:58.413Z,100
2023-05-01T00:31:54.275Z,100
2023-05-01T00:46:50.615Z,100
2023-05-01T01:01:47.597Z,100
2023-05-01T01:16:43.361Z,100
2023-05-01T01:31:39.523Z,100
2023-05-01T01:46:36.466Z,100
2023-05-01T02:01:32.705Z,100
2023-05-01T02:16:28.806Z,100
2023-05-01T02:31:25.200Z,100
2023-05-01T02:46:21.579Z,100
2023-05-01T03:01:17.613Z,100
2023-05-01T03:16:13.454Z,100
2023-05-01T03:31:09.344Z,100
2023-05-01T03:46:05.404Z,100
2023-05-01T04:01:01.748Z,100
2023-05-01T04:15:58.113Z,100
2023-05-01T04:30:54.282Z,100
2023-05-01T04:45:49.734Z,100
2023-05-01T05:00:45.928Z,100
2023-05-01T05:15:42.408Z,100
2023-05-01T05:30:39.016Z,100
2023-05-01T05:45:35.671Z,100
2023-05-01T06:00:31.928Z,100
2023-05-01T06:15:28.151Z,100
2023-05-01T06:30:24.899Z,100
2023-05-01T06:45:21.256Z,100
2023-05-01T07:00:17.537Z,100
2023-05-01T07:15:13.898Z,100
2023-05-01T07:30:10.361Z,100
2023-05-01T07:45:07.106Z,100
2023-05-01T08:00:03.996Z,100
2023-05-01T08:15:00.937Z,100
2023-05-01T08:29:57.430Z,100
2023-05-01T08:44:53.997Z,100
2023-05-01T08:59:50.881Z,96.47
2023-05-01T09:14:47.762Z,78.8
2023-05-01T09:29:44.446Z,73.41
2023-05-01T09:44:40.889Z,73.05
2023-05-01T09:59:37.700Z,78.57
2023-05-01T10:29:30.962Z,70.7
2023-05-01T10:44:27.552Z,66.27
2023-05-01T10:59:23.428Z,67.62
2023-05-01T11:14:19.545Z,69.9
2023-05-01T11:29:16.064Z,59.43
2023-05-01T11:44:13.942Z,52.99
2023-05-01T11:59:10.925Z,44.03
2023-05-01T12:14:07.414Z,44.26
2023-05-01T12:29:02.700Z,62.78
2023-05-01T12:43:58.154Z,100
2023-05-01T12:58:53.219Z,100
2023-05-01T13:13:49.701Z,100
2023-05-01T13:28:45.253Z,100
2023-05-01T13:43:41.704Z,100
2023-05-01T13:58:37.334Z,100
2023-05-01T14:13:33.739Z,88.86
2023-05-01T14:28:29.601Z,91.75
2023-05-01T14:43:25.555Z,98.86
2023-05-01T14:58:21.565Z,100
2023-05-01T15:13:17.287Z,100
2023-05-01T15:28:13.740Z,100
2023-05-01T15:43:09.844Z,100
2023-05-01T15:58:06.107Z,100
2023-05-01T16:13:01.548Z,100
2023-05-01T16:27:57.878Z,100
2023-05-01T16:42:54.628Z,100
2023-05-01T16:57:50.730Z,100
2023-05-01T17:12:46.893Z,100
2023-05-01T17:27:43.297Z,100
2023-05-01T17:42:39.191Z,100
2023-05-01T17:57:34.688Z,100
2023-05-01T18:12:30.519Z,100
2023-05-01T18:27:26.626Z,100
2023-05-01T18:57:18.244Z,100
2023-05-01T19:12:13.921Z,100
2023-05-01T19:27:10.053Z,100
2023-05-01T19:42:06.043Z,100
2023-05-01T19:57:01.997Z,100
2023-05-01T20:11:58.033Z,100
2023-05-01T20:26:53.629Z,100
2023-05-01T20:41:49.460Z,100
2023-05-01T20:56:45.916Z,100
2023-05-01T21:11:42.158Z,100
2023-05-01T21:26:38.245Z,100
2023-05-01T21:41:34.387Z,100
2023-05-01T21:56:30.362Z,100
2023-05-01T22:11:26.265Z,100
2023-05-01T22:26:22.630Z,100
2023-05-01T22:41:17.952Z,100
2023-05-01T22:56:14.184Z,100
2023-05-01T23:11:10.010Z,100
2023-05-01T23:26:06.274Z,100
2023-05-01T23:41:02.518Z,100
2023-05-01T23:55:59.107Z,100
